createdAt,value
2023-05-22T00:02:04.494Z,50.11
2023-05-22T00:04:45.851Z,50.13
2023-05-22T00:07:20.424Z,50.37
2023-05-22T00:09:56.547Z,50.34
2023-05-22T00:12:27.772Z,50.24
2023-05-22T00:14:58.168Z,50.20
2023-05-22T00:17:34.700Z,50.25
2023-05-22T00:20:07.504Z,50.34
2023-05-22T00:22:53.636Z,50.55
2023-05-22T00:25:24.049Z,50.54
2023-05-22T00:27:56.550Z,50.75
2023-05-22T00:30:29.912Z,50.76
2023-05-22T00:33:00.923Z,50.24
2023-05-22T00:35:31.938Z,50.23
2023-05-22T00:38:08.468Z,49.90
2023-05-22T00:40:42.161Z,50.25
2023-05-22T00:43:11.734Z,50.03
2023-05-22T00:45:57.581Z,50.33
2023-05-22T00:48:34.021Z,50.34
2023-05-22T00:51:07.345Z,50.15
2023-05-22T00:53:43.221Z,50.05
2023-05-22T00:56:21.341Z,49.99
2023-05-22T00:58:51.893Z,49.82
2023-05-22T01:01:27.286Z,49.51
2023-05-22T01:03:58.497Z,49.02
2023-05-22T01:06:30.177Z,48.90
2023-05-22T01:09:03.853Z,48.78
2023-05-22T01:12:21.872Z,49.94
2023-05-22T01:15:32.588Z,50.51
2023-05-22T01:18:22.166Z,50.45
2023-05-22T01:21:23.476Z,50.10
2023-05-22T01:24:10.797Z,49.61
2023-05-22T01:26:51.704Z,48.96
2023-05-22T01:29:50.920Z,48.79
2023-05-22T01:32:26.163Z,48.41
2023-05-22T01:35:02.682Z,48.10
2023-05-22T01:37:38.307Z,47.92
2023-05-22T01:40:09.577Z,48.08
2023-05-22T01:42:47.995Z,47.93
2023-05-22T01:45:30.104Z,47.89
2023-05-22T01:48:10.390Z,48.15
2023-05-22T01:50:50.315Z,48.13
2023-05-22T01:53:45.308Z,47.91
2023-05-22T01:56:52.553Z,48.35
2023-05-22T01:59:49.442Z,47.64
2023-05-22T02:02:21.969Z,47.42
2023-05-22T02:05:06.998Z,47.49
2023-05-22T02:07:41.640Z,47.30
2023-05-22T02:10:20.634Z,47.15
2023-05-22T02:12:51.445Z,47.04
2023-05-22T02:15:28.181Z,47.08
2023-05-22T02:18:01.543Z,47.14
2023-05-22T02:20:37.846Z,47.03
2023-05-22T02:23:09.788Z,46.62
2023-05-22T02:25:39.455Z,46.37
2023-05-22T02:28:10.202Z,46.28
2023-05-22T02:30:39.886Z,46.31
2023-05-22T02:33:23.198Z,46.34
2023-05-22T02:35:54.930Z,46.37
2023-05-22T02:38:31.179Z,46.35
2023-05-22T02:41:01.815Z,46.37
2023-05-22T02:43:31.751Z,46.28
2023-05-22T02:46:03.563Z,46.22
2023-05-22T02:48:35.247Z,46.31
2023-05-22T02:51:07.752Z,46.22
2023-05-22T02:53:46.304Z,46.33
2023-05-22T02:56:19.526Z,46.21
2023-05-22T02:58:52.175Z,46.02
2023-05-22T03:01:27.293Z,46.10
2023-05-22T03:03:58.348Z,46.01
2023-05-22T03:06:31.867Z,45.99
2023-05-22T03:09:07.752Z,45.92
2023-05-22T03:11:39.485Z,45.82
2023-05-22T03:14:10.692Z,45.76
2023-05-22T03:16:40.022Z,45.64
2023-05-22T03:19:19.121Z,45.58
2023-05-22T03:21:51.410Z,45.51
2023-05-22T03:24:25.880Z,45.60
2023-05-22T03:26:58.951Z,45.51
2023-05-22T03:29:42.347Z,45.45
2023-05-22T03:32:21.636Z,45.47
2023-05-22T03:34:52.117Z,45.25
2023-05-22T03:37:31.863Z,45.20
2023-05-22T03:40:02.784Z,45.12
2023-05-22T03:42:35.361Z,45.06
2023-05-22T03:45:06.933Z,45.04
2023-05-22T03:47:36.329Z,45.00
2023-05-22T03:50:05.993Z,44.93
2023-05-22T03:52:38.454Z,45.00
2023-05-22T03:55:08.549Z,45.16
2023-05-22T03:57:41.222Z,45.25
2023-05-22T04:00:17.199Z,45.20
2023-05-22T04:02:51.424Z,45.32
2023-05-22T04:05:20.103Z,45.19
2023-05-22T04:07:55.814Z,45.13
2023-05-22T04:10:27.970Z,44.93
2023-05-22T04:12:57.803Z,44.77
2023-05-22T04:15:30.728Z,44.91
2023-05-22T04:18:03.130Z,44.94
2023-05-22T04:20:34.179Z,44.83
2023-05-22T04:23:05.669Z,45.17
2023-05-22T04:25:37.745Z,45.26
2023-05-22T04:28:08.077Z,45.32
2023-05-22T04:30:38.485Z,45.19
2023-05-22T04:33:10.286Z,45.10
2023-05-22T04:35:42.577Z,44.91
2023-05-22T04:38:12.420Z,44.72
2023-05-22T04:40:50.060Z,44.86
2023-05-22T04:43:19.643Z,44.71
2023-05-22T04:45:50.022Z,44.33
2023-05-22T04:48:22.501Z,44.21
2023-05-22T04:50:55.985Z,44.25
2023-05-22T04:53:28.036Z,44.16
2023-05-22T04:56:07.720Z,44.25
2023-05-22T04:58:38.795Z,44.04
2023-05-22T05:01:10.598Z,43.97
2023-05-22T05:03:40.323Z,43.89
2023-05-22T05:06:09.666Z,43.98
2023-05-22T05:08:39.370Z,44.04
2023-05-22T05:11:09.790Z,43.91
2023-05-22T05:13:40.723Z,43.84
2023-05-22T05:16:12.000Z,43.77
2023-05-22T05:18:43.025Z,43.75
2023-05-22T05:21:19.799Z,43.78
2023-05-22T05:23:49.861Z,43.81
2023-05-22T05:26:19.950Z,43.72
2023-05-22T05:28:51.377Z,43.66
2023-05-22T05:31:22.511Z,43.66
2023-05-22T05:34:11.049Z,43.67
2023-05-22T05:37:07.058Z,43.62
2023-05-22T05:39:36.468Z,43.50
2023-05-22T05:42:16.036Z,43.42
2023-05-22T05:44:48.133Z,43.40
2023-05-22T05:47:19.013Z,43.33
2023-05-22T05:49:50.025Z,43.60
2023-05-22T05:52:22.063Z,43.63
2023-05-22T05:54:51.719Z,43.64
2023-05-22T05:57:24.068Z,43.60
2023-05-22T05:59:55.084Z,43.56
2023-05-22T06:02:47.554Z,43.71
2023-05-22T06:05:51.795Z,43.78
2023-05-22T06:08:49.890Z,43.70
2023-05-22T06:11:27.156Z,43.63
2023-05-22T06:13:57.838Z,43.53
2023-05-22T06:16:28.929Z,43.42
2023-05-22T06:19:03.752Z,43.44
2023-05-22T06:21:36.126Z,43.49
2023-05-22T06:24:06.132Z,43.28
2023-05-22T06:26:38.050Z,43.22
2023-05-22T06:29:07.884Z,43.04
2023-05-22T06:31:40.791Z,43.13
2023-05-22T06:34:11.217Z,43.25
2023-05-22T06:36:48.669Z,43.21
2023-05-22T06:39:19.815Z,43.25
2023-05-22T06:42:08.233Z,43.93
2023-05-22T06:45:19.457Z,44.23
2023-05-22T06:48:04.459Z,44.18
2023-05-22T06:50:39.819Z,44.18
2023-05-22T06:53:22.233Z,44.18
2023-05-22T06:55:57.999Z,44.21
2023-05-22T06:58:48.506Z,44.04
2023-05-22T07:01:23.808Z,42.84
2023-05-22T07:04:09.856Z,44.27
2023-05-22T07:06:54.507Z,43.09
2023-05-22T07:09:24.782Z,42.66
2023-05-22T07:11:58.054Z,42.56
2023-05-22T07:14:27.838Z,42.47
2023-05-22T07:17:00.061Z,42.70
2023-05-22T07:19:36.440Z,42.72
2023-05-22T07:22:11.546Z,42.65
2023-05-22T07:24:43.568Z,42.64
2023-05-22T07:27:15.334Z,42.31
2023-05-22T07:29:48.223Z,42.21
2023-05-22T07:32:17.969Z,42.27
2023-05-22T07:34:48.904Z,42.38
2023-05-22T07:37:19.801Z,42.22
2023-05-22T07:39:59.488Z,42.07
2023-05-22T07:42:29.855Z,42.12
2023-05-22T07:44:58.166Z,42.33
2023-05-22T07:47:34.368Z,42.18
2023-05-22T07:50:05.930Z,42.24
2023-05-22T07:52:48.160Z,42.35
2023-05-22T07:55:18.513Z,42.32
2023-05-22T07:57:50.405Z,42.27
2023-05-22T08:00:32.080Z,42.31
2023-05-22T08:03:05.591Z,42.32
2023-05-22T08:05:35.267Z,42.20
2023-05-22T08:08:06.509Z,42.19
2023-05-22T08:10:52.255Z,43.04
2023-05-22T08:13:33.680Z,43.33
2023-05-22T08:16:04.477Z,42.23
2023-05-22T08:18:43.331Z,42.02
2023-05-22T08:21:15.867Z,41.92
2023-05-22T08:23:47.187Z,41.81
2023-05-22T08:26:19.917Z,41.78
2023-05-22T08:28:49.926Z,41.89
2023-05-22T08:31:19.919Z,41.84
2023-05-22T08:33:51.832Z,41.87
2023-05-22T08:36:21.685Z,41.77
2023-05-22T08:38:52.470Z,41.83
2023-05-22T08:41:23.081Z,41.89
2023-05-22T08:43:52.048Z,41.91
2023-05-22T08:46:27.073Z,41.86
2023-05-22T08:49:02.141Z,41.93
2023-05-22T08:51:34.989Z,41.82
2023-05-22T08:54:11.001Z,43.20
2023-05-22T08:56:52.877Z,42.08
2023-05-22T08:59:25.970Z,41.93
2023-05-22T09:01:59.491Z,42.63
2023-05-22T09:04:31.831Z,41.98
2023-05-22T09:07:16.124Z,41.87
2023-05-22T09:09:48.235Z,41.89
2023-05-22T09:12:18.293Z,41.77
2023-05-22T09:14:48.408Z,41.75
2023-05-22T09:17:21.964Z,41.77
2023-05-22T09:19:52.045Z,41.95
2023-05-22T09:22:24.754Z,41.88
2023-05-22T09:24:55.284Z,41.86
2023-05-22T09:27:25.058Z,41.84
2023-05-22T09:29:58.546Z,41.90
2023-05-22T09:32:33.418Z,41.92
2023-05-22T09:35:06.999Z,41.85
2023-05-22T09:37:39.220Z,41.80
2023-05-22T09:40:10.784Z,41.81
2023-05-22T09:42:47.386Z,41.82
2023-05-22T09:45:22.734Z,41.85
2023-05-22T09:47:57.690Z,41.83
2023-05-22T09:50:27.224Z,41.72
2023-05-22T09:52:57.972Z,41.60
2023-05-22T09:55:34.435Z,41.45
2023-05-22T09:58:06.101Z,41.52
2023-05-22T10:00:38.642Z,41.46
2023-05-22T10:03:12.821Z,41.50
2023-05-22T10:05:51.920Z,41.66
2023-05-22T10:08:30.229Z,41.81
2023-05-22T10:11:02.491Z,41.51
2023-05-22T10:13:31.988Z,41.33
2023-05-22T10:16:03.386Z,41.20
2023-05-22T10:18:35.586Z,41.14
2023-05-22T10:21:07.509Z,41.15
2023-05-22T10:23:36.402Z,41.04
2023-05-22T10:26:09.910Z,41.09
2023-05-22T10:28:50.792Z,41.22
2023-05-22T10:31:33.480Z,41.25
2023-05-22T10:34:43.375Z,41.35
2023-05-22T10:37:35.440Z,41.36
2023-05-22T10:40:15.044Z,41.44
2023-05-22T10:42:46.563Z,41.36
2023-05-22T10:45:19.231Z,41.26
2023-05-22T10:47:48.765Z,41.21
2023-05-22T10:50:20.568Z,41.20
2023-05-22T10:52:49.836Z,41.22
2023-05-22T10:55:26.014Z,41.40
2023-05-22T10:57:58.468Z,41.35
2023-05-22T11:00:32.467Z,41.42
2023-05-22T11:03:17.276Z,42.97
2023-05-22T11:05:57.763Z,42.20
2023-05-22T11:08:29.514Z,41.90
2023-05-22T11:11:13.388Z,42.01
2023-05-22T11:13:45.258Z,41.81
2023-05-22T11:16:18.448Z,41.46
2023-05-22T11:18:48.354Z,41.63
2023-05-22T11:21:18.126Z,41.65
2023-05-22T11:23:48.256Z,41.83
2023-05-22T11:26:27.850Z,41.64
2023-05-22T11:29:01.937Z,41.85
2023-05-22T11:31:35.998Z,41.77
2023-05-22T11:34:06.288Z,42.36
2023-05-22T11:36:36.434Z,42.42
2023-05-22T11:39:06.656Z,42.48
2023-05-22T11:41:39.055Z,42.58
2023-05-22T11:44:10.445Z,42.61
2023-05-22T11:46:41.185Z,42.68
2023-05-22T11:49:17.572Z,42.84
2023-05-22T11:51:49.952Z,42.86
2023-05-22T11:54:24.049Z,42.93
2023-05-22T11:56:54.695Z,42.94
2023-05-22T11:59:25.504Z,43.15
2023-05-22T12:01:54.035Z,43.10
2023-05-22T12:04:24.587Z,43.28
2023-05-22T12:06:56.248Z,43.50
2023-05-22T12:09:27.711Z,43.70
2023-05-22T12:11:59.126Z,43.92
2023-05-22T12:14:31.805Z,44.06
2023-05-22T12:17:07.494Z,44.14
2023-05-22T12:19:36.356Z,44.16
2023-05-22T12:22:08.688Z,44.14
2023-05-22T12:24:43.201Z,44.33
2023-05-22T12:27:19.286Z,44.51
2023-05-22T12:29:48.918Z,44.83
2023-05-22T12:32:23.367Z,45.04
2023-05-22T12:34:51.908Z,45.12
2023-05-22T12:37:29.291Z,45.35
2023-05-22T12:40:04.423Z,45.54
2023-05-22T12:42:35.711Z,45.70
2023-05-22T12:45:07.725Z,45.92
2023-05-22T12:47:38.096Z,45.94
2023-05-22T12:50:08.750Z,46.04
2023-05-22T12:52:39.502Z,46.28
2023-05-22T12:55:12.026Z,46.38
2023-05-22T12:57:41.244Z,46.44
2023-05-22T13:00:11.955Z,46.45
2023-05-22T13:02:48.603Z,46.54
2023-05-22T13:05:18.087Z,46.70
2023-05-22T13:07:47.926Z,46.76
2023-05-22T13:10:17.090Z,46.90
2023-05-22T13:12:52.275Z,47.18
2023-05-22T13:15:21.208Z,47.44
2023-05-22T13:17:51.055Z,47.50
2023-05-22T13:20:20.836Z,47.59
2023-05-22T13:22:54.325Z,47.73
2023-05-22T13:25:23.916Z,47.69
2023-05-22T13:27:53.555Z,47.65
2023-05-22T13:30:23.230Z,47.60
2023-05-22T13:32:52.732Z,47.71
2023-05-22T13:35:25.016Z,47.82
2023-05-22T13:37:55.843Z,48.02
2023-05-22T13:40:26.235Z,48.15
2023-05-22T13:42:55.815Z,48.27
2023-05-22T13:45:24.703Z,48.25
2023-05-22T13:47:56.357Z,48.23
2023-05-22T13:50:26.218Z,48.32
2023-05-22T13:52:55.227Z,48.33
2023-05-22T13:55:24.158Z,48.39
2023-05-22T13:57:54.067Z,48.46
2023-05-22T14:00:28.139Z,48.56
2023-05-22T14:03:06.556Z,48.86
2023-05-22T14:05:35.779Z,48.81
2023-05-22T14:08:04.246Z,48.76
2023-05-22T14:10:32.650Z,48.61
2023-05-22T14:13:02.601Z,48.55
2023-05-22T14:15:32.140Z,48.67
2023-05-22T14:18:02.273Z,48.74
2023-05-22T14:20:31.083Z,48.78
2023-05-22T14:23:00.832Z,48.89
2023-05-22T14:25:30.130Z,49.22
2023-05-22T14:27:59.342Z,49.36
2023-05-22T14:30:28.967Z,49.42
2023-05-22T14:32:58.536Z,49.48
2023-05-22T14:35:27.291Z,49.57
2023-05-22T14:37:56.703Z,49.61
2023-05-22T14:40:26.544Z,49.72
2023-05-22T14:42:55.836Z,49.87
2023-05-22T14:45:24.997Z,49.83
2023-05-22T14:47:54.646Z,49.81
2023-05-22T14:50:23.598Z,49.78
2023-05-22T14:52:54.261Z,49.94
2023-05-22T14:55:23.670Z,50.03
2023-05-22T14:57:52.453Z,49.92
2023-05-22T15:00:22.192Z,50.04
2023-05-22T15:02:51.658Z,50.06
2023-05-22T15:05:20.117Z,50.03
2023-05-22T15:07:50.680Z,50.06
2023-05-22T15:10:21.600Z,50.15
2023-05-22T15:12:50.385Z,50.14
2023-05-22T15:15:19.460Z,50.22
2023-05-22T15:17:48.611Z,50.22
2023-05-22T15:20:18.018Z,50.20
2023-05-22T15:22:48.545Z,50.13
2023-05-22T15:25:18.318Z,50.14
2023-05-22T15:27:47.585Z,50.17
2023-05-22T15:30:19.604Z,50.19
2023-05-22T15:32:50.245Z,50.82
2023-05-22T15:35:20.493Z,50.48
2023-05-22T15:37:49.449Z,50.40
2023-05-22T15:40:23.189Z,50.46
2023-05-22T15:42:55.382Z,50.79
2023-05-22T15:45:25.025Z,50.77
2023-05-22T15:47:55.224Z,50.88
2023-05-22T15:50:23.784Z,50.99
2023-05-22T15:52:55.630Z,51.25
2023-05-22T15:55:24.418Z,51.17
2023-05-22T15:57:53.829Z,51.26
2023-05-22T16:00:23.590Z,51.32
2023-05-22T16:02:52.457Z,51.28
2023-05-22T16:05:22.100Z,51.36
2023-05-22T16:07:51.628Z,51.21
2023-05-22T16:10:21.004Z,51.29
2023-05-22T16:12:50.324Z,51.37
2023-05-22T16:15:19.874Z,51.33
2023-05-22T16:17:48.376Z,51.41
2023-05-22T16:20:19.277Z,51.48
2023-05-22T16:22:49.176Z,51.97
2023-05-22T16:25:19.634Z,51.87
2023-05-22T16:27:48.363Z,51.92
2023-05-22T16:30:18.010Z,52.10
2023-05-22T16:32:48.188Z,51.95
2023-05-22T16:35:17.698Z,51.78
2023-05-22T16:37:47.530Z,51.73
2023-05-22T16:40:18.275Z,51.81
2023-05-22T16:42:47.984Z,51.82
2023-05-22T16:45:23.860Z,52.00
2023-05-22T16:47:55.636Z,51.95
2023-05-22T16:50:26.055Z,52.04
2023-05-22T16:52:55.215Z,51.97
2023-05-22T16:55:24.372Z,52.12
2023-05-22T16:57:56.557Z,52.24
2023-05-22T17:00:25.586Z,52.15
2023-05-22T17:02:56.325Z,52.08
2023-05-22T17:05:26.411Z,52.01
2023-05-22T17:07:55.567Z,51.86
2023-05-22T17:10:24.383Z,52.04
2023-05-22T17:12:53.063Z,51.98
2023-05-22T17:15:22.289Z,51.96
2023-05-22T17:17:51.074Z,51.87
2023-05-22T17:20:23.005Z,51.75
2023-05-22T17:22:53.659Z,51.87
2023-05-22T17:25:22.055Z,51.90
2023-05-22T17:27:50.542Z,51.97
2023-05-22T17:30:19.855Z,52.01
2023-05-22T17:32:48.092Z,51.84
2023-05-22T17:35:17.133Z,51.83
2023-05-22T17:37:47.070Z,51.82
2023-05-22T17:40:17.320Z,51.84
2023-05-22T17:42:47.205Z,51.87
2023-05-22T17:45:17.333Z,51.96
2023-05-22T17:47:48.152Z,51.87
2023-05-22T17:50:17.844Z,51.82
2023-05-22T17:52:47.261Z,51.87
2023-05-22T17:55:17.083Z,51.99
2023-05-22T17:57:46.885Z,51.91
2023-05-22T18:00:17.510Z,51.83
2023-05-22T18:02:48.178Z,51.93
2023-05-22T18:05:17.114Z,51.86
2023-05-22T18:07:47.309Z,51.88
2023-05-22T18:10:16.857Z,51.90
2023-05-22T18:12:46.490Z,51.76
2023-05-22T18:15:15.553Z,51.66
2023-05-22T18:17:50.566Z,51.68
2023-05-22T18:20:20.622Z,51.73
2023-05-22T18:22:50.209Z,51.90
2023-05-22T18:25:19.130Z,53.38
2023-05-22T18:27:48.510Z,52.85
2023-05-22T18:30:20.419Z,52.16
2023-05-22T18:32:48.850Z,51.97
2023-05-22T18:35:18.447Z,51.97
2023-05-22T18:37:47.833Z,51.85
2023-05-22T18:40:18.200Z,51.70
2023-05-22T18:42:47.976Z,51.37
2023-05-22T18:45:18.201Z,51.30
2023-05-22T18:47:47.659Z,51.10
2023-05-22T18:50:18.317Z,51.22
2023-05-22T18:52:47.825Z,51.48
2023-05-22T18:55:17.275Z,51.58
2023-05-22T18:57:48.227Z,51.62
2023-05-22T19:00:18.247Z,51.79
2023-05-22T19:02:48.615Z,51.90
2023-05-22T19:05:18.358Z,51.65
2023-05-22T19:07:47.766Z,52.02
2023-05-22T19:10:17.015Z,52.04
2023-05-22T19:12:47.369Z,52.11
2023-05-22T19:15:16.476Z,52.07
2023-05-22T19:17:45.761Z,52.14
2023-05-22T19:20:47.696Z,53.86
2023-05-22T19:23:18.130Z,53.39
2023-05-22T19:25:47.801Z,53.14
2023-05-22T19:28:17.797Z,52.44
2023-05-22T19:30:48.117Z,52.24
2023-05-22T19:33:18.318Z,52.18
2023-05-22T19:35:47.591Z,52.04
2023-05-22T19:38:18.643Z,51.92
2023-05-22T19:40:48.417Z,51.73
2023-05-22T19:43:18.364Z,51.70
2023-05-22T19:45:48.814Z,51.70
2023-05-22T19:48:18.361Z,51.75
2023-05-22T19:50:47.683Z,51.70
2023-05-22T19:53:18.915Z,51.74
2023-05-22T19:55:51.080Z,51.74
2023-05-22T19:58:20.615Z,52.54
2023-05-22T20:00:50.257Z,51.95
2023-05-22T20:03:38.185Z,51.59
2023-05-22T20:06:08.034Z,51.55
2023-05-22T20:08:38.522Z,51.48
2023-05-22T20:11:08.293Z,51.57
2023-05-22T20:13:38.747Z,51.59
2023-05-22T20:16:12.289Z,51.58
2023-05-22T20:18:42.088Z,53.61
2023-05-22T20:21:10.953Z,52.21
2023-05-22T20:23:40.437Z,51.65
2023-05-22T20:26:14.077Z,51.40
2023-05-22T20:28:45.103Z,51.18
2023-05-22T20:31:16.366Z,51.13
2023-05-22T20:33:50.325Z,51.13
2023-05-22T20:36:19.924Z,53.01
2023-05-22T20:38:49.840Z,51.56
2023-05-22T20:41:20.369Z,51.09
2023-05-22T20:43:49.239Z,50.88
2023-05-22T20:46:18.572Z,51.04
2023-05-22T20:48:50.199Z,50.94
2023-05-22T20:51:21.018Z,50.89
2023-05-22T20:53:54.683Z,50.84
2023-05-22T20:56:24.043Z,50.94
2023-05-22T20:58:53.173Z,51.02
2023-05-22T21:01:23.274Z,51.07
2023-05-22T21:03:52.653Z,51.15
2023-05-22T21:06:22.092Z,51.12
2023-05-22T21:09:02.451Z,51.28
2023-05-22T21:11:31.818Z,51.23
2023-05-22T21:14:00.275Z,51.23
2023-05-22T21:16:30.276Z,51.29
2023-05-22T21:18:59.104Z,51.39
2023-05-22T21:21:28.050Z,51.42
2023-05-22T21:23:56.942Z,51.52
2023-05-22T21:26:25.997Z,51.49
2023-05-22T21:28:55.619Z,51.46
2023-05-22T21:31:24.985Z,51.30
2023-05-22T21:33:54.613Z,51.38
2023-05-22T21:36:28.352Z,51.41
2023-05-22T21:39:00.877Z,51.15
2023-05-22T21:41:37.147Z,51.29
2023-05-22T21:44:06.558Z,51.21
2023-05-22T21:46:35.611Z,51.09
2023-05-22T21:49:06.612Z,51.02
2023-05-22T21:51:35.668Z,51.00
2023-05-22T21:54:05.215Z,51.58
2023-05-22T21:56:34.843Z,51.00
2023-05-22T21:59:04.445Z,50.91
2023-05-22T22:01:34.144Z,50.76
2023-05-22T22:04:03.638Z,50.68
2023-05-22T22:06:32.909Z,50.63
2023-05-22T22:09:03.985Z,50.58
2023-05-22T22:11:32.687Z,50.59
2023-05-22T22:14:02.172Z,50.57
2023-05-22T22:16:36.217Z,50.56
2023-05-22T22:19:06.233Z,50.78
2023-05-22T22:21:35.289Z,50.62
2023-05-22T22:24:05.236Z,50.51
2023-05-22T22:26:34.375Z,50.52
2023-05-22T22:29:03.391Z,50.65
2023-05-22T22:31:32.353Z,50.61
2023-05-22T22:34:01.898Z,50.67
2023-05-22T22:36:30.254Z,50.67
2023-05-22T22:38:59.200Z,50.67
2023-05-22T22:41:28.650Z,50.70
2023-05-22T22:43:58.205Z,50.68
2023-05-22T22:46:27.674Z,50.75
2023-05-22T22:48:56.309Z,50.73
2023-05-22T22:51:25.688Z,50.76
2023-05-22T22:53:54.191Z,50.74
2023-05-22T22:56:24.733Z,50.67
2023-05-22T22:58:54.525Z,50.67
2023-05-22T23:01:23.721Z,50.65
2023-05-22T23:03:52.559Z,50.64
2023-05-22T23:06:22.093Z,50.61
2023-05-22T23:08:51.782Z,50.61
2023-05-22T23:11:28.932Z,50.61
2023-05-22T23:14:04.475Z,50.65
2023-05-22T23:16:36.698Z,50.60
2023-05-22T23:19:06.268Z,50.49
2023-05-22T23:21:36.469Z,50.51
2023-05-22T23:24:07.534Z,50.41
2023-05-22T23:26:36.371Z,50.26
2023-05-22T23:29:04.703Z,50.11
2023-05-22T23:31:34.161Z,50.15
2023-05-22T23:34:03.646Z,50.17
2023-05-22T23:36:33.490Z,50.04
2023-05-22T23:39:02.410Z,50.06
2023-05-22T23:41:31.399Z,49.99
2023-05-22T23:44:00.711Z,49.95
2023-05-22T23:46:34.223Z,49.97
2023-05-22T23:49:03.802Z,49.70
2023-05-22T23:51:32.660Z,49.55
2023-05-22T23:54:02.219Z,49.52
2023-05-22T23:56:31.023Z,49.42
2023-05-22T23:58:59.736Z,49.37
